sensor_id;sensor_type;location;lat;lon;timestamp;P1;durP1;ratioP1;P2;durP2;ratioP2
52354;SDS011;38286;51.156;17.038;2023-04-03T00:01:15;10.55;;;2.35;;
52354;SDS011;38286;51.156;17.038;2023-04-03T00:03:41;7.03;;;2.40;;
52354;SDS011;38286;51.156;17.038;2023-04-03T00:06:07;6.70;;;2.20;;
52354;SDS011;38286;51.156;17.038;2023-04-03T00:08:36;8.18;;;2.55;;
52354;SDS011;38286;51.156;17.038;2023-04-03T00:11:02;8.60;;;2.70;;
52354;SDS011;38286;51.156;17.038;2023-04-03T00:13:29;8.98;;;2.45;;
52354;SDS011;38286;51.156;17.038;2023-04-03T00:15:55;10.50;;;2.60;;
52354;SDS011;38286;51.156;17.038;2023-04-03T00:18:21;5.05;;;2.05;;
52354;SDS011;38286;51.156;17.038;2023-04-03T00:20:48;7.10;;;2.42;;
52354;SDS011;38286;51.156;17.038;2023-04-03T00:23:14;7.53;;;2.60;;
52354;SDS011;38286;51.156;17.038;2023-04-03T00:25:40;12.07;;;2.55;;
52354;SDS011;38286;51.156;17.038;2023-04-03T00:28:07;8.82;;;2.50;;
52354;SDS011;38286;51.156;17.038;2023-04-03T00:30:33;8.00;;;2.40;;
52354;SDS011;38286;51.156;17.038;2023-04-03T00:32:59;9.85;;;2.53;;
52354;SDS011;38286;51.156;17.038;2023-04-03T00:35:26;5.57;;;2.35;;
52354;SDS011;38286;51.156;17.038;2023-04-03T00:37:53;9.50;;;2.70;;
52354;SDS011;38286;51.156;17.038;2023-04-03T00:40:20;6.88;;;2.17;;
52354;SDS011;38286;51.156;17.038;2023-04-03T00:42:48;4.38;;;2.35;;
52354;SDS011;38286;51.156;17.038;2023-04-03T00:47:41;5.55;;;2.72;;
52354;SDS011;38286;51.156;17.038;2023-04-03T00:50:07;8.40;;;2.72;;
52354;SDS011;38286;51.156;17.038;2023-04-03T00:52:33;9.82;;;2.40;;
52354;SDS011;38286;51.156;17.038;2023-04-03T00:55:01;4.88;;;2.03;;
52354;SDS011;38286;51.156;17.038;2023-04-03T00:57:29;8.73;;;2.40;;
52354;SDS011;38286;51.156;17.038;2023-04-03T00:59:57;6.53;;;2.55;;
52354;SDS011;38286;51.156;17.038;2023-04-03T01:02:28;6.22;;;2.35;;
52354;SDS011;38286;51.156;17.038;2023-04-03T01:04:54;7.78;;;2.58;;
52354;SDS011;38286;51.156;17.038;2023-04-03T01:09:53;6.18;;;2.42;;
52354;SDS011;38286;51.156;17.038;2023-04-03T01:12:29;5.30;;;2.78;;
52354;SDS011;38286;51.156;17.038;2023-04-03T01:14:58;8.18;;;2.50;;
52354;SDS011;38286;51.156;17.038;2023-04-03T01:17:30;6.00;;;2.67;;
52354;SDS011;38286;51.156;17.038;2023-04-03T01:20:14;4.72;;;2.25;;
52354;SDS011;38286;51.156;17.038;2023-04-03T01:25:42;7.18;;;2.55;;
52354;SDS011;38286;51.156;17.038;2023-04-03T01:28:11;8.48;;;2.35;;
52354;SDS011;38286;51.156;17.038;2023-04-03T01:30:45;6.38;;;2.60;;
52354;SDS011;38286;51.156;17.038;2023-04-03T01:33:15;10.88;;;2.50;;
52354;SDS011;38286;51.156;17.038;2023-04-03T01:35:40;10.20;;;3.35;;
52354;SDS011;38286;51.156;17.038;2023-04-03T01:38:07;9.98;;;3.65;;
52354;SDS011;38286;51.156;17.038;2023-04-03T01:40:32;10.85;;;3.20;;
52354;SDS011;38286;51.156;17.038;2023-04-03T01:42:59;11.38;;;3.38;;
52354;SDS011;38286;51.156;17.038;2023-04-03T01:45:25;8.70;;;3.38;;
52354;SDS011;38286;51.156;17.038;2023-04-03T01:47:51;11.25;;;3.70;;
52354;SDS011;38286;51.156;17.038;2023-04-03T01:50:17;9.18;;;2.50;;
52354;SDS011;38286;51.156;17.038;2023-04-03T01:52:43;9.40;;;3.03;;
52354;SDS011;38286;51.156;17.038;2023-04-03T01:55:09;10.10;;;2.70;;
52354;SDS011;38286;51.156;17.038;2023-04-03T01:57:35;10.70;;;2.40;;
52354;SDS011;38286;51.156;17.038;2023-04-03T02:00:01;11.77;;;3.10;;
52354;SDS011;38286;51.156;17.038;2023-04-03T02:02:27;7.43;;;2.47;;
52354;SDS011;38286;51.156;17.038;2023-04-03T02:04:53;12.82;;;2.53;;
52354;SDS011;38286;51.156;17.038;2023-04-03T02:07:20;9.55;;;3.00;;
52354;SDS011;38286;51.156;17.038;2023-04-03T02:09:46;10.02;;;3.17;;
52354;SDS011;38286;51.156;17.038;2023-04-03T02:12:14;11.20;;;3.17;;
52354;SDS011;38286;51.156;17.038;2023-04-03T02:14:40;9.48;;;3.20;;
52354;SDS011;38286;51.156;17.038;2023-04-03T02:17:06;10.27;;;3.63;;
52354;SDS011;38286;51.156;17.038;2023-04-03T02:19:36;8.32;;;2.90;;
52354;SDS011;38286;51.156;17.038;2023-04-03T02:22:03;9.40;;;3.30;;
52354;SDS011;38286;51.156;17.038;2023-04-03T02:24:29;10.45;;;3.65;;
52354;SDS011;38286;51.156;17.038;2023-04-03T02:26:56;8.25;;;3.63;;
52354;SDS011;38286;51.156;17.038;2023-04-03T02:29:22;5.75;;;3.03;;
52354;SDS011;38286;51.156;17.038;2023-04-03T02:31:49;7.75;;;3.55;;
52354;SDS011;38286;51.156;17.038;2023-04-03T02:34:15;9.73;;;3.35;;
52354;SDS011;38286;51.156;17.038;2023-04-03T02:36:42;12.48;;;3.10;;
52354;SDS011;38286;51.156;17.038;2023-04-03T02:39:08;10.40;;;3.53;;
52354;SDS011;38286;51.156;17.038;2023-04-03T02:41:34;10.73;;;3.10;;
52354;SDS011;38286;51.156;17.038;2023-04-03T02:44:01;8.30;;;3.42;;
52354;SDS011;38286;51.156;17.038;2023-04-03T02:46:27;8.93;;;2.70;;
52354;SDS011;38286;51.156;17.038;2023-04-03T02:48:54;12.30;;;3.05;;
52354;SDS011;38286;51.156;17.038;2023-04-03T02:51:20;12.70;;;3.63;;
52354;SDS011;38286;51.156;17.038;2023-04-03T02:53:46;13.60;;;3.20;;
52354;SDS011;38286;51.156;17.038;2023-04-03T02:56:12;13.45;;;2.97;;
52354;SDS011;38286;51.156;17.038;2023-04-03T02:58:38;11.65;;;3.30;;
52354;SDS011;38286;51.156;17.038;2023-04-03T03:01:04;10.07;;;3.13;;
52354;SDS011;38286;51.156;17.038;2023-04-03T03:03:30;9.57;;;2.58;;
52354;SDS011;38286;51.156;17.038;2023-04-03T03:06:06;5.20;;;3.00;;
52354;SDS011;38286;51.156;17.038;2023-04-03T03:08:34;10.75;;;2.97;;
52354;SDS011;38286;51.156;17.038;2023-04-03T03:11:01;7.05;;;2.83;;
52354;SDS011;38286;51.156;17.038;2023-04-03T03:13:27;12.02;;;3.42;;
52354;SDS011;38286;51.156;17.038;2023-04-03T03:15:54;9.57;;;3.53;;
52354;SDS011;38286;51.156;17.038;2023-04-03T03:18:19;7.40;;;2.85;;
52354;SDS011;38286;51.156;17.038;2023-04-03T03:20:46;8.07;;;3.35;;
52354;SDS011;38286;51.156;17.038;2023-04-03T03:23:12;8.20;;;2.78;;
52354;SDS011;38286;51.156;17.038;2023-04-03T03:25:39;11.32;;;3.28;;
52354;SDS011;38286;51.156;17.038;2023-04-03T03:28:05;11.27;;;3.03;;
52354;SDS011;38286;51.156;17.038;2023-04-03T03:30:32;8.55;;;3.20;;
52354;SDS011;38286;51.156;17.038;2023-04-03T03:32:58;7.13;;;3.38;;
52354;SDS011;38286;51.156;17.038;2023-04-03T03:35:24;10.88;;;3.28;;
52354;SDS011;38286;51.156;17.038;2023-04-03T03:37:50;13.85;;;4.10;;
52354;SDS011;38286;51.156;17.038;2023-04-03T03:40:16;13.60;;;3.50;;
52354;SDS011;38286;51.156;17.038;2023-04-03T03:42:42;12.70;;;3.90;;
52354;SDS011;38286;51.156;17.038;2023-04-03T03:45:08;13.63;;;3.85;;
52354;SDS011;38286;51.156;17.038;2023-04-03T03:47:34;11.15;;;3.65;;
52354;SDS011;38286;51.156;17.038;2023-04-03T03:50:01;10.90;;;3.55;;
52354;SDS011;38286;51.156;17.038;2023-04-03T03:52:27;13.93;;;4.07;;
52354;SDS011;38286;51.156;17.038;2023-04-03T03:54:53;12.10;;;3.80;;
52354;SDS011;38286;51.156;17.038;2023-04-03T03:57:19;11.40;;;4.68;;
52354;SDS011;38286;51.156;17.038;2023-04-03T03:59:46;16.90;;;5.05;;
52354;SDS011;38286;51.156;17.038;2023-04-03T04:02:12;11.35;;;4.25;;
52354;SDS011;38286;51.156;17.038;2023-04-03T04:04:40;11.30;;;3.97;;
52354;SDS011;38286;51.156;17.038;2023-04-03T04:07:06;13.50;;;4.40;;
52354;SDS011;38286;51.156;17.038;2023-04-03T04:09:32;9.77;;;3.50;;
52354;SDS011;38286;51.156;17.038;2023-04-03T04:11:58;10.45;;;3.95;;
52354;SDS011;38286;51.156;17.038;2023-04-03T04:14:24;9.38;;;3.47;;
52354;SDS011;38286;51.156;17.038;2023-04-03T04:16:50;8.68;;;3.97;;
52354;SDS011;38286;51.156;17.038;2023-04-03T04:19:16;15.38;;;3.72;;
52354;SDS011;38286;51.156;17.038;2023-04-03T04:21:42;10.30;;;4.07;;
52354;SDS011;38286;51.156;17.038;2023-04-03T04:24:08;12.65;;;4.60;;
52354;SDS011;38286;51.156;17.038;2023-04-03T04:26:34;12.82;;;3.70;;
52354;SDS011;38286;51.156;17.038;2023-04-03T04:29:01;14.02;;;4.25;;
52354;SDS011;38286;51.156;17.038;2023-04-03T04:31:26;11.02;;;3.85;;
52354;SDS011;38286;51.156;17.038;2023-04-03T04:33:53;12.90;;;4.00;;
52354;SDS011;38286;51.156;17.038;2023-04-03T04:36:19;14.43;;;3.75;;
52354;SDS011;38286;51.156;17.038;2023-04-03T04:38:45;18.48;;;4.35;;
52354;SDS011;38286;51.156;17.038;2023-04-03T04:41:11;9.63;;;3.85;;
52354;SDS011;38286;51.156;17.038;2023-04-03T04:43:37;9.70;;;3.55;;
52354;SDS011;38286;51.156;17.038;2023-04-03T04:46:04;12.23;;;3.75;;
52354;SDS011;38286;51.156;17.038;2023-04-03T04:48:31;8.57;;;3.13;;
52354;SDS011;38286;51.156;17.038;2023-04-03T04:50:58;11.90;;;3.08;;
52354;SDS011;38286;51.156;17.038;2023-04-03T04:53:24;16.38;;;4.30;;
52354;SDS011;38286;51.156;17.038;2023-04-03T04:55:50;7.82;;;3.30;;
52354;SDS011;38286;51.156;17.038;2023-04-03T04:58:17;8.32;;;2.97;;
52354;SDS011;38286;51.156;17.038;2023-04-03T05:05:54;14.20;;;3.80;;
52354;SDS011;38286;51.156;17.038;2023-04-03T05:08:21;9.90;;;3.42;;
52354;SDS011;38286;51.156;17.038;2023-04-03T05:10:47;8.77;;;3.10;;
52354;SDS011;38286;51.156;17.038;2023-04-03T05:13:13;15.65;;;3.85;;
52354;SDS011;38286;51.156;17.038;2023-04-03T05:15:39;8.95;;;3.58;;
52354;SDS011;38286;51.156;17.038;2023-04-03T05:18:05;11.85;;;3.55;;
52354;SDS011;38286;51.156;17.038;2023-04-03T05:20:32;11.55;;;3.55;;
52354;SDS011;38286;51.156;17.038;2023-04-03T05:22:58;10.57;;;3.55;;
52354;SDS011;38286;51.156;17.038;2023-04-03T05:25:24;13.50;;;3.28;;
52354;SDS011;38286;51.156;17.038;2023-04-03T05:27:51;10.30;;;3.05;;
52354;SDS011;38286;51.156;17.038;2023-04-03T05:30:17;11.95;;;3.15;;
52354;SDS011;38286;51.156;17.038;2023-04-03T05:32:44;9.40;;;2.97;;
52354;SDS011;38286;51.156;17.038;2023-04-03T05:35:10;12.02;;;3.50;;
52354;SDS011;38286;51.156;17.038;2023-04-03T05:37:37;7.88;;;3.15;;
52354;SDS011;38286;51.156;17.038;2023-04-03T05:40:03;9.57;;;3.33;;
52354;SDS011;38286;51.156;17.038;2023-04-03T05:42:30;12.15;;;3.65;;
52354;SDS011;38286;51.156;17.038;2023-04-03T05:44:56;12.20;;;3.13;;
52354;SDS011;38286;51.156;17.038;2023-04-03T05:47:22;7.82;;;3.45;;
52354;SDS011;38286;51.156;17.038;2023-04-03T05:49:48;13.00;;;3.30;;
52354;SDS011;38286;51.156;17.038;2023-04-03T05:52:22;12.13;;;2.97;;
52354;SDS011;38286;51.156;17.038;2023-04-03T05:54:51;11.10;;;3.47;;
52354;SDS011;38286;51.156;17.038;2023-04-03T05:57:18;10.30;;;3.03;;
52354;SDS011;38286;51.156;17.038;2023-04-03T06:00:03;9.48;;;3.50;;
52354;SDS011;38286;51.156;17.038;2023-04-03T06:02:31;11.40;;;4.00;;
52354;SDS011;38286;51.156;17.038;2023-04-03T06:04:57;9.85;;;3.58;;
52354;SDS011;38286;51.156;17.038;2023-04-03T06:07:24;11.85;;;3.70;;
52354;SDS011;38286;51.156;17.038;2023-04-03T06:09:54;11.10;;;4.82;;
52354;SDS011;38286;51.156;17.038;2023-04-03T06:12:21;8.35;;;3.40;;
52354;SDS011;38286;51.156;17.038;2023-04-03T06:14:47;10.20;;;3.35;;
52354;SDS011;38286;51.156;17.038;2023-04-03T06:17:15;12.38;;;4.28;;
52354;SDS011;38286;51.156;17.038;2023-04-03T06:19:41;13.85;;;3.97;;
52354;SDS011;38286;51.156;17.038;2023-04-03T06:22:08;8.35;;;3.70;;
52354;SDS011;38286;51.156;17.038;2023-04-03T06:24:34;14.63;;;4.35;;
52354;SDS011;38286;51.156;17.038;2023-04-03T06:27:01;13.68;;;3.85;;
52354;SDS011;38286;51.156;17.038;2023-04-03T06:29:27;9.68;;;3.35;;
52354;SDS011;38286;51.156;17.038;2023-04-03T06:31:53;15.90;;;3.95;;
52354;SDS011;38286;51.156;17.038;2023-04-03T06:34:19;8.32;;;3.92;;
52354;SDS011;38286;51.156;17.038;2023-04-03T06:36:45;11.60;;;4.13;;
52354;SDS011;38286;51.156;17.038;2023-04-03T06:39:13;11.63;;;3.78;;
52354;SDS011;38286;51.156;17.038;2023-04-03T06:41:43;9.82;;;3.53;;
52354;SDS011;38286;51.156;17.038;2023-04-03T06:44:09;7.80;;;3.63;;
52354;SDS011;38286;51.156;17.038;2023-04-03T06:46:37;9.13;;;3.42;;
52354;SDS011;38286;51.156;17.038;2023-04-03T06:49:03;13.77;;;3.80;;
52354;SDS011;38286;51.156;17.038;2023-04-03T06:51:33;7.70;;;3.22;;
52354;SDS011;38286;51.156;17.038;2023-04-03T06:53:59;9.10;;;3.83;;
52354;SDS011;38286;51.156;17.038;2023-04-03T06:56:26;7.40;;;3.13;;
52354;SDS011;38286;51.156;17.038;2023-04-03T06:58:53;12.65;;;3.42;;
52354;SDS011;38286;51.156;17.038;2023-04-03T07:01:23;7.00;;;3.35;;
52354;SDS011;38286;51.156;17.038;2023-04-03T07:03:51;9.30;;;2.83;;
52354;SDS011;38286;51.156;17.038;2023-04-03T07:06:18;7.40;;;3.08;;
52354;SDS011;38286;51.156;17.038;2023-04-03T07:08:45;5.28;;;2.70;;
52354;SDS011;38286;51.156;17.038;2023-04-03T07:11:12;8.55;;;2.95;;
52354;SDS011;38286;51.156;17.038;2023-04-03T07:13:38;5.18;;;2.50;;
52354;SDS011;38286;51.156;17.038;2023-04-03T07:16:04;3.65;;;1.92;;
52354;SDS011;38286;51.156;17.038;2023-04-03T07:18:31;6.43;;;2.42;;
52354;SDS011;38286;51.156;17.038;2023-04-03T07:20:58;5.57;;;2.38;;
52354;SDS011;38286;51.156;17.038;2023-04-03T07:23:24;7.68;;;2.45;;
52354;SDS011;38286;51.156;17.038;2023-04-03T07:25:50;7.20;;;2.60;;
52354;SDS011;38286;51.156;17.038;2023-04-03T07:28:17;7.03;;;2.25;;
52354;SDS011;38286;51.156;17.038;2023-04-03T07:31:03;6.60;;;2.53;;
52354;SDS011;38286;51.156;17.038;2023-04-03T07:33:33;5.90;;;2.58;;
52354;SDS011;38286;51.156;17.038;2023-04-03T07:36:01;4.93;;;2.10;;
52354;SDS011;38286;51.156;17.038;2023-04-03T07:38:27;5.22;;;2.17;;
52354;SDS011;38286;51.156;17.038;2023-04-03T07:40:53;4.25;;;2.30;;
52354;SDS011;38286;51.156;17.038;2023-04-03T07:43:20;8.20;;;2.55;;
52354;SDS011;38286;51.156;17.038;2023-04-03T07:45:47;5.57;;;2.03;;
52354;SDS011;38286;51.156;17.038;2023-04-03T07:48:20;4.38;;;1.98;;
52354;SDS011;38286;51.156;17.038;2023-04-03T07:50:47;6.63;;;2.15;;
52354;SDS011;38286;51.156;17.038;2023-04-03T07:53:14;4.25;;;2.40;;
52354;SDS011;38286;51.156;17.038;2023-04-03T07:55:40;4.43;;;2.38;;
52354;SDS011;38286;51.156;17.038;2023-04-03T07:58:10;4.78;;;1.92;;
52354;SDS011;38286;51.156;17.038;2023-04-03T08:00:37;5.35;;;2.53;;
52354;SDS011;38286;51.156;17.038;2023-04-03T08:03:03;5.07;;;2.08;;
52354;SDS011;38286;51.156;17.038;2023-04-03T08:05:29;4.18;;;2.40;;
52354;SDS011;38286;51.156;17.038;2023-04-03T08:07:55;4.88;;;2.10;;
52354;SDS011;38286;51.156;17.038;2023-04-03T08:10:22;5.15;;;1.92;;
52354;SDS011;38286;51.156;17.038;2023-04-03T08:12:47;3.90;;;2.05;;
52354;SDS011;38286;51.156;17.038;2023-04-03T08:15:14;3.97;;;1.90;;
52354;SDS011;38286;51.156;17.038;2023-04-03T08:17:41;4.30;;;2.03;;
52354;SDS011;38286;51.156;17.038;2023-04-03T08:20:09;10.75;;;2.10;;
52354;SDS011;38286;51.156;17.038;2023-04-03T08:22:35;5.32;;;1.92;;
52354;SDS011;38286;51.156;17.038;2023-04-03T08:25:02;5.05;;;1.95;;
52354;SDS011;38286;51.156;17.038;2023-04-03T08:27:28;4.20;;;1.75;;
52354;SDS011;38286;51.156;17.038;2023-04-03T08:29:55;3.85;;;1.67;;
52354;SDS011;38286;51.156;17.038;2023-04-03T08:32:22;2.40;;;1.70;;
52354;SDS011;38286;51.156;17.038;2023-04-03T08:34:48;5.28;;;1.80;;
52354;SDS011;38286;51.156;17.038;2023-04-03T08:37:14;5.55;;;2.38;;
52354;SDS011;38286;51.156;17.038;2023-04-03T08:39:42;4.68;;;1.88;;
52354;SDS011;38286;51.156;17.038;2023-04-03T08:42:16;5.60;;;2.10;;
52354;SDS011;38286;51.156;17.038;2023-04-03T08:44:55;3.45;;;1.60;;
52354;SDS011;38286;51.156;17.038;2023-04-03T08:48:00;3.92;;;1.85;;
52354;SDS011;38286;51.156;17.038;2023-04-03T08:50:37;5.40;;;1.92;;
52354;SDS011;38286;51.156;17.038;2023-04-03T08:53:06;4.45;;;1.70;;
52354;SDS011;38286;51.156;17.038;2023-04-03T08:55:39;4.97;;;1.60;;
52354;SDS011;38286;51.156;17.038;2023-04-03T08:58:28;4.47;;;1.70;;
52354;SDS011;38286;51.156;17.038;2023-04-03T09:00:56;3.53;;;1.70;;
52354;SDS011;38286;51.156;17.038;2023-04-03T09:03:38;5.57;;;2.10;;
52354;SDS011;38286;51.156;17.038;2023-04-03T09:06:22;4.63;;;1.83;;
52354;SDS011;38286;51.156;17.038;2023-04-03T09:16:21;4.47;;;1.67;;
52354;SDS011;38286;51.156;17.038;2023-04-03T09:19:06;2.90;;;0.95;;
52354;SDS011;38286;51.156;17.038;2023-04-03T09:21:39;2.85;;;1.40;;
52354;SDS011;38286;51.156;17.038;2023-04-03T09:24:09;5.25;;;1.42;;
52354;SDS011;38286;51.156;17.038;2023-04-03T09:26:45;4.15;;;1.30;;
52354;SDS011;38286;51.156;17.038;2023-04-03T09:29:16;2.38;;;1.50;;
52354;SDS011;38286;51.156;17.038;2023-04-03T09:31:45;3.85;;;1.70;;
52354;SDS011;38286;51.156;17.038;2023-04-03T09:34:35;2.78;;;1.65;;
52354;SDS011;38286;51.156;17.038;2023-04-03T09:37:02;5.40;;;1.27;;
52354;SDS011;38286;51.156;17.038;2023-04-03T09:39:32;4.97;;;1.67;;
52354;SDS011;38286;51.156;17.038;2023-04-03T09:42:23;4.90;;;1.70;;
52354;SDS011;38286;51.156;17.038;2023-04-03T09:44:54;3.58;;;1.42;;
52354;SDS011;38286;51.156;17.038;2023-04-03T09:47:28;4.03;;;1.20;;
52354;SDS011;38286;51.156;17.038;2023-04-03T09:52:50;2.53;;;1.40;;
52354;SDS011;38286;51.156;17.038;2023-04-03T09:55:21;4.60;;;1.63;;
52354;SDS011;38286;51.156;17.038;2023-04-03T09:57:57;3.35;;;1.45;;
52354;SDS011;38286;51.156;17.038;2023-04-03T10:00:32;3.92;;;1.70;;
52354;SDS011;38286;51.156;17.038;2023-04-03T10:03:01;3.70;;;1.65;;
52354;SDS011;38286;51.156;17.038;2023-04-03T10:05:38;3.47;;;1.67;;
52354;SDS011;38286;51.156;17.038;2023-04-03T10:08:10;3.05;;;1.48;;
52354;SDS011;38286;51.156;17.038;2023-04-03T10:10:37;4.30;;;1.63;;
52354;SDS011;38286;51.156;17.038;2023-04-03T10:13:07;3.70;;;1.70;;
52354;SDS011;38286;51.156;17.038;2023-04-03T10:15:39;4.18;;;1.95;;
52354;SDS011;38286;51.156;17.038;2023-04-03T10:23:51;5.93;;;1.65;;
52354;SDS011;38286;51.156;17.038;2023-04-03T10:26:33;7.60;;;2.17;;
52354;SDS011;38286;51.156;17.038;2023-04-03T10:34:45;5.50;;;1.83;;
52354;SDS011;38286;51.156;17.038;2023-04-03T10:37:13;5.80;;;1.83;;
52354;SDS011;38286;51.156;17.038;2023-04-03T10:42:28;2.88;;;1.65;;
52354;SDS011;38286;51.156;17.038;2023-04-03T10:48:11;5.60;;;1.75;;
52354;SDS011;38286;51.156;17.038;2023-04-03T10:50:58;5.07;;;1.77;;
52354;SDS011;38286;51.156;17.038;2023-04-03T10:53:31;3.05;;;1.70;;
52354;SDS011;38286;51.156;17.038;2023-04-03T10:58:52;3.83;;;1.90;;
52354;SDS011;38286;51.156;17.038;2023-04-03T11:01:38;6.03;;;2.05;;
52354;SDS011;38286;51.156;17.038;2023-04-03T11:04:06;3.47;;;1.63;;
52354;SDS011;38286;51.156;17.038;2023-04-03T11:06:41;2.78;;;1.80;;
52354;SDS011;38286;51.156;17.038;2023-04-03T11:11:44;4.47;;;1.40;;
52354;SDS011;38286;51.156;17.038;2023-04-03T11:17:38;2.25;;;1.60;;
52354;SDS011;38286;51.156;17.038;2023-04-03T11:19:52;3.33;;;1.73;;
52354;SDS011;38286;51.156;17.038;2023-04-03T11:22:33;3.72;;;1.65;;
52354;SDS011;38286;51.156;17.038;2023-04-03T11:27:50;4.05;;;1.90;;
52354;SDS011;38286;51.156;17.038;2023-04-03T11:30:23;2.92;;;1.77;;
52354;SDS011;38286;51.156;17.038;2023-04-03T11:32:56;3.00;;;1.58;;
52354;SDS011;38286;51.156;17.038;2023-04-03T11:35:28;4.05;;;1.70;;
52354;SDS011;38286;51.156;17.038;2023-04-03T11:37:55;3.63;;;1.58;;
52354;SDS011;38286;51.156;17.038;2023-04-03T11:40:28;3.63;;;1.58;;
52354;SDS011;38286;51.156;17.038;2023-04-03T11:45:27;2.30;;;1.40;;
52354;SDS011;38286;51.156;17.038;2023-04-03T11:51:00;2.03;;;1.45;;
52354;SDS011;38286;51.156;17.038;2023-04-03T11:53:28;4.70;;;1.70;;
52354;SDS011;38286;51.156;17.038;2023-04-03T11:56:02;3.40;;;1.60;;
52354;SDS011;38286;51.156;17.038;2023-04-03T11:58:34;3.20;;;1.60;;
52354;SDS011;38286;51.156;17.038;2023-04-03T12:01:11;3.70;;;1.85;;
52354;SDS011;38286;51.156;17.038;2023-04-03T12:24:29;4.30;;;1.77;;
52354;SDS011;38286;51.156;17.038;2023-04-03T12:48:20;4.90;;;1.95;;
52354;SDS011;38286;51.156;17.038;2023-04-03T12:50:51;4.97;;;2.10;;
52354;SDS011;38286;51.156;17.038;2023-04-03T12:53:19;5.03;;;2.08;;
52354;SDS011;38286;51.156;17.038;2023-04-03T12:55:53;4.75;;;2.10;;
52354;SDS011;38286;51.156;17.038;2023-04-03T13:03:27;2.63;;;1.70;;
52354;SDS011;38286;51.156;17.038;2023-04-03T13:06:00;5.30;;;1.80;;
52354;SDS011;38286;51.156;17.038;2023-04-03T13:08:29;2.85;;;2.00;;
52354;SDS011;38286;51.156;17.038;2023-04-03T13:13:29;4.97;;;1.80;;
52354;SDS011;38286;51.156;17.038;2023-04-03T13:15:55;2.75;;;1.60;;
52354;SDS011;38286;51.156;17.038;2023-04-03T13:18:32;5.30;;;2.20;;
52354;SDS011;38286;51.156;17.038;2023-04-03T13:21:06;7.95;;;2.05;;
52354;SDS011;38286;51.156;17.038;2023-04-03T13:23:38;3.33;;;1.80;;
52354;SDS011;38286;51.156;17.038;2023-04-03T13:26:06;2.67;;;2.10;;
52354;SDS011;38286;51.156;17.038;2023-04-03T13:28:32;6.75;;;2.25;;
52354;SDS011;38286;51.156;17.038;2023-04-03T13:33:29;3.80;;;1.95;;
52354;SDS011;38286;51.156;17.038;2023-04-03T13:36:00;2.63;;;1.92;;
52354;SDS011;38286;51.156;17.038;2023-04-03T13:38:30;2.85;;;1.70;;
52354;SDS011;38286;51.156;17.038;2023-04-03T13:41:45;3.95;;;2.60;;
52354;SDS011;38286;51.156;17.038;2023-04-03T13:46:48;3.05;;;1.73;;
52354;SDS011;38286;51.156;17.038;2023-04-03T13:54:58;3.75;;;1.85;;
52354;SDS011;38286;51.156;17.038;2023-04-03T13:57:26;2.72;;;1.63;;
52354;SDS011;38286;51.156;17.038;2023-04-03T13:59:53;3.10;;;1.77;;
52354;SDS011;38286;51.156;17.038;2023-04-03T14:04:49;2.63;;;1.90;;
52354;SDS011;38286;51.156;17.038;2023-04-03T14:07:23;2.70;;;1.55;;
52354;SDS011;38286;51.156;17.038;2023-04-03T14:09:50;3.38;;;1.85;;
52354;SDS011;38286;51.156;17.038;2023-04-03T14:12:18;2.30;;;1.65;;
52354;SDS011;38286;51.156;17.038;2023-04-03T14:14:55;4.20;;;1.95;;
52354;SDS011;38286;51.156;17.038;2023-04-03T14:17:23;3.60;;;1.90;;
52354;SDS011;38286;51.156;17.038;2023-04-03T14:19:51;3.42;;;1.67;;
52354;SDS011;38286;51.156;17.038;2023-04-03T14:22:19;5.10;;;1.80;;
52354;SDS011;38286;51.156;17.038;2023-04-03T14:24:48;3.83;;;1.63;;
52354;SDS011;38286;51.156;17.038;2023-04-03T14:27:20;3.72;;;2.05;;
52354;SDS011;38286;51.156;17.038;2023-04-03T14:29:49;3.05;;;1.65;;
52354;SDS011;38286;51.156;17.038;2023-04-03T14:32:17;3.28;;;1.67;;
52354;SDS011;38286;51.156;17.038;2023-04-03T14:34:45;3.83;;;1.95;;
52354;SDS011;38286;51.156;17.038;2023-04-03T14:37:13;3.42;;;1.38;;
52354;SDS011;38286;51.156;17.038;2023-04-03T14:39:41;3.85;;;1.80;;
52354;SDS011;38286;51.156;17.038;2023-04-03T14:42:15;3.97;;;1.88;;
52354;SDS011;38286;51.156;17.038;2023-04-03T14:44:43;4.55;;;1.90;;
52354;SDS011;38286;51.156;17.038;2023-04-03T14:47:11;2.38;;;1.60;;
52354;SDS011;38286;51.156;17.038;2023-04-03T14:49:41;6.38;;;2.10;;
52354;SDS011;38286;51.156;17.038;2023-04-03T14:52:19;4.72;;;2.55;;
52354;SDS011;38286;51.156;17.038;2023-04-03T14:54:49;5.63;;;2.03;;
52354;SDS011;38286;51.156;17.038;2023-04-03T14:57:16;3.15;;;1.83;;
52354;SDS011;38286;51.156;17.038;2023-04-03T14:59:42;3.58;;;1.92;;
52354;SDS011;38286;51.156;17.038;2023-04-03T15:04:57;3.53;;;2.15;;
52354;SDS011;38286;51.156;17.038;2023-04-03T15:07:25;3.22;;;2.10;;
52354;SDS011;38286;51.156;17.038;2023-04-03T15:09:52;3.95;;;1.80;;
52354;SDS011;38286;51.156;17.038;2023-04-03T15:12:22;5.53;;;1.95;;
52354;SDS011;38286;51.156;17.038;2023-04-03T15:14:49;4.47;;;1.98;;
52354;SDS011;38286;51.156;17.038;2023-04-03T15:17:20;3.70;;;2.35;;
52354;SDS011;38286;51.156;17.038;2023-04-03T15:19:47;2.83;;;2.10;;
52354;SDS011;38286;51.156;17.038;2023-04-03T15:22:14;4.40;;;1.80;;
52354;SDS011;38286;51.156;17.038;2023-04-03T15:24:42;4.20;;;2.33;;
52354;SDS011;38286;51.156;17.038;2023-04-03T15:27:09;4.32;;;2.03;;
52354;SDS011;38286;51.156;17.038;2023-04-03T15:29:36;4.22;;;2.03;;
52354;SDS011;38286;51.156;17.038;2023-04-03T15:32:03;2.97;;;2.10;;
52354;SDS011;38286;51.156;17.038;2023-04-03T15:34:29;8.23;;;2.40;;
52354;SDS011;38286;51.156;17.038;2023-04-03T15:36:56;7.90;;;2.33;;
52354;SDS011;38286;51.156;17.038;2023-04-03T15:39:21;4.72;;;2.38;;
52354;SDS011;38286;51.156;17.038;2023-04-03T15:41:48;3.60;;;2.28;;
52354;SDS011;38286;51.156;17.038;2023-04-03T15:44:14;3.72;;;2.15;;
52354;SDS011;38286;51.156;17.038;2023-04-03T15:46:43;5.30;;;2.67;;
52354;SDS011;38286;51.156;17.038;2023-04-03T15:49:10;3.90;;;2.05;;
52354;SDS011;38286;51.156;17.038;2023-04-03T15:51:37;3.33;;;2.22;;
52354;SDS011;38286;51.156;17.038;2023-04-03T15:54:03;4.68;;;2.30;;
52354;SDS011;38286;51.156;17.038;2023-04-03T15:56:30;4.88;;;2.40;;
52354;SDS011;38286;51.156;17.038;2023-04-03T15:58:55;4.13;;;2.35;;
52354;SDS011;38286;51.156;17.038;2023-04-03T16:01:22;8.00;;;2.67;;
52354;SDS011;38286;51.156;17.038;2023-04-03T16:03:48;5.75;;;2.60;;
52354;SDS011;38286;51.156;17.038;2023-04-03T16:06:14;3.35;;;2.25;;
52354;SDS011;38286;51.156;17.038;2023-04-03T16:08:41;6.97;;;2.30;;
52354;SDS011;38286;51.156;17.038;2023-04-03T16:11:08;6.60;;;2.42;;
52354;SDS011;38286;51.156;17.038;2023-04-03T16:13:34;5.28;;;2.50;;
52354;SDS011;38286;51.156;17.038;2023-04-03T16:16:00;5.95;;;2.50;;
52354;SDS011;38286;51.156;17.038;2023-04-03T16:18:27;4.78;;;2.45;;
52354;SDS011;38286;51.156;17.038;2023-04-03T16:20:54;7.95;;;2.55;;
52354;SDS011;38286;51.156;17.038;2023-04-03T16:23:20;7.43;;;3.15;;
52354;SDS011;38286;51.156;17.038;2023-04-03T16:25:47;4.47;;;2.22;;
52354;SDS011;38286;51.156;17.038;2023-04-03T16:28:13;7.75;;;2.65;;
52354;SDS011;38286;51.156;17.038;2023-04-03T16:30:40;7.47;;;2.50;;
52354;SDS011;38286;51.156;17.038;2023-04-03T16:33:06;3.88;;;2.75;;
52354;SDS011;38286;51.156;17.038;2023-04-03T16:35:34;6.35;;;2.10;;
52354;SDS011;38286;51.156;17.038;2023-04-03T16:38:00;6.22;;;2.83;;
52354;SDS011;38286;51.156;17.038;2023-04-03T16:40:26;5.28;;;2.90;;
52354;SDS011;38286;51.156;17.038;2023-04-03T16:42:52;4.22;;;2.60;;